createdAt,value
2023-02-18T00:01:26.212Z,99263.20
2023-02-18T00:04:01.582Z,99260.92
2023-02-18T00:06:55.418Z,99264.64
2023-02-18T00:09:29.091Z,99273.70
2023-02-18T00:12:12.913Z,99277.50
2023-02-18T00:14:49.592Z,99281.61
2023-02-18T00:17:23.142Z,99294.54
2023-02-18T00:20:06.822Z,99292.04
2023-02-18T00:23:00.569Z,99292.45
2023-02-18T00:25:37.370Z,99297.81
2023-02-18T00:28:31.544Z,99301.50
2023-02-18T00:31:27.247Z,99301.24
2023-02-18T00:34:02.615Z,99301.41
2023-02-18T00:36:37.455Z,99305.81
2023-02-18T00:39:22.245Z,99300.69
2023-02-18T00:41:55.817Z,99300.22
2023-02-18T00:44:29.267Z,99304.65
2023-02-18T00:47:10.134Z,99302.27
2023-02-18T00:49:44.056Z,99296.88
2023-02-18T00:52:17.559Z,99298.56
2023-02-18T00:54:51.160Z,99306.73
2023-02-18T00:57:27.474Z,99307.23
2023-02-18T01:00:13.713Z,99301.13
2023-02-18T01:02:47.304Z,99303.58
2023-02-18T01:05:21.653Z,99310.10
2023-02-18T01:07:58.292Z,99310.48
2023-02-18T01:10:57.854Z,99320.92
2023-02-18T01:13:32.880Z,99308.30
2023-02-18T01:16:27.399Z,99315.55
2023-02-18T01:19:11.012Z,99320.19
2023-02-18T01:21:51.881Z,99316.64
2023-02-18T01:24:46.537Z,99312.03
2023-02-18T01:27:31.932Z,99307.72
2023-02-18T01:30:06.856Z,99312.52
2023-02-18T01:32:51.764Z,99315.23
2023-02-18T01:35:50.144Z,99313.29
2023-02-18T01:38:34.742Z,99307.67
2023-02-18T01:41:17.592Z,99302.05
2023-02-18T01:44:16.664Z,99299.99
2023-02-18T01:47:10.336Z,99309.65
2023-02-18T01:49:56.226Z,99305.84
2023-02-18T01:52:33.900Z,99302.48
2023-02-18T01:55:14.280Z,99300.05
2023-02-18T01:57:51.230Z,99293.66
2023-02-18T02:00:45.528Z,99297.23
2023-02-18T02:03:39.413Z,99301.93
2023-02-18T02:06:24.822Z,99305.86
2023-02-18T02:09:12.396Z,99299.92
2023-02-18T02:12:03.233Z,99293.94
2023-02-18T02:14:53.873Z,99299.14
2023-02-18T02:17:39.223Z,99295.82
2023-02-18T02:20:46.996Z,99288.08
2023-02-18T02:23:54.630Z,99287.91
2023-02-18T02:27:14.555Z,99301.15
2023-02-18T02:30:27.946Z,99288.45
2023-02-18T02:33:53.473Z,99282.48
2023-02-18T02:36:31.356Z,99287.59
2023-02-18T02:39:17.122Z,99288.36
2023-02-18T02:42:00.687Z,99305.34
2023-02-18T02:44:41.231Z,99300.74
2023-02-18T02:47:28.340Z,99300.55
2023-02-18T02:50:08.467Z,99297.86
2023-02-18T02:52:47.693Z,99299.41
2023-02-18T02:55:21.584Z,99303.52
2023-02-18T02:57:59.856Z,99305.33
2023-02-18T03:00:58.962Z,99311.51
2023-02-18T03:03:59.473Z,99314.05
2023-02-18T03:06:56.580Z,99313.02
2023-02-18T03:09:42.682Z,99319.17
2023-02-18T03:12:21.195Z,99325.17
2023-02-18T03:15:07.317Z,99332.98
2023-02-18T03:17:50.179Z,99331.83
2023-02-18T03:20:29.014Z,99333.27
2023-02-18T03:23:08.018Z,99328.84
2023-02-18T03:25:44.103Z,99330.67
2023-02-18T03:28:22.119Z,99335.50
2023-02-18T03:31:00.472Z,99343.27
2023-02-18T03:33:42.457Z,99338.89
2023-02-18T03:36:17.223Z,99332.70
2023-02-18T03:38:58.837Z,99343.77
2023-02-18T03:41:34.440Z,99347.92
2023-02-18T03:44:10.057Z,99356.90
2023-02-18T03:46:45.500Z,99344.69
2023-02-18T03:49:19.277Z,99354.94
2023-02-18T03:51:55.954Z,99365.42
2023-02-18T03:54:29.412Z,99373.11
2023-02-18T03:57:02.971Z,99374.13
2023-02-18T03:59:36.601Z,99372.40
2023-02-18T04:02:10.402Z,99375.98
2023-02-18T04:04:53.963Z,99378.18
2023-02-18T04:07:27.717Z,99375.95
2023-02-18T04:10:01.166Z,99380.50
2023-02-18T04:12:34.838Z,99386.10
2023-02-18T04:15:09.067Z,99381.11
2023-02-18T04:17:42.420Z,99384.46
2023-02-18T04:20:17.048Z,99387.75
2023-02-18T04:22:59.458Z,99390.78
2023-02-18T04:25:32.810Z,99389.79
2023-02-18T04:28:06.592Z,99389.36
2023-02-18T04:30:40.301Z,99385.88
2023-02-18T04:33:14.585Z,99388.67
2023-02-18T04:35:47.804Z,99391.98
2023-02-18T04:38:21.377Z,99392.18
2023-02-18T04:41:06.591Z,99394.71
2023-02-18T04:43:40.210Z,99390.99
2023-02-18T04:46:24.766Z,99386.34
2023-02-18T04:48:58.365Z,99387.49
2023-02-18T04:51:42.036Z,99387.43
2023-02-18T04:54:15.659Z,99394.92
2023-02-18T04:56:49.234Z,99391.31
2023-02-18T04:59:23.022Z,99394.20
2023-02-18T05:01:56.396Z,99392.51
2023-02-18T05:04:39.878Z,99389.76
2023-02-18T05:07:27.960Z,99389.64
2023-02-18T05:10:01.486Z,99384.02
2023-02-18T05:12:35.459Z,99386.68
2023-02-18T05:15:17.809Z,99383.52
2023-02-18T05:18:11.298Z,99381.30
2023-02-18T05:20:45.552Z,99389.30
2023-02-18T05:23:20.653Z,99387.73
2023-02-18T05:25:54.030Z,99393.34
2023-02-18T05:28:28.338Z,99396.08
2023-02-18T05:31:02.515Z,99390.98
2023-02-18T05:33:36.205Z,99400.54
2023-02-18T05:36:10.876Z,99408.36
2023-02-18T05:38:44.385Z,99408.67
2023-02-18T05:41:38.057Z,99411.83
2023-02-18T05:44:28.682Z,99410.95
2023-02-18T05:47:14.716Z,99414.27
2023-02-18T05:49:48.368Z,99424.61
2023-02-18T05:52:22.518Z,99424.84
2023-02-18T05:54:58.840Z,99437.33
2023-02-18T05:57:32.290Z,99429.27
2023-02-18T06:00:06.465Z,99432.21
2023-02-18T06:02:40.468Z,99434.77
2023-02-18T06:05:14.837Z,99431.89
2023-02-18T06:07:48.075Z,99434.67
2023-02-18T06:10:30.634Z,99443.80
2023-02-18T06:13:04.676Z,99451.31
2023-02-18T06:15:38.132Z,99457.21
2023-02-18T06:18:11.482Z,99454.45
2023-02-18T06:20:44.900Z,99450.28
2023-02-18T06:23:18.781Z,99462.28
2023-02-18T06:25:53.738Z,99467.09
2023-02-18T06:28:30.420Z,99469.59
2023-02-18T06:31:13.938Z,99473.58
2023-02-18T06:33:50.861Z,99471.96
2023-02-18T06:36:24.369Z,99475.60
2023-02-18T06:38:59.730Z,99471.92
2023-02-18T06:41:33.025Z,99470.05
2023-02-18T06:44:06.819Z,99462.23
2023-02-18T06:46:40.581Z,99467.27
2023-02-18T06:49:14.075Z,99470.27
2023-02-18T06:51:58.120Z,99470.14
2023-02-18T06:54:31.620Z,99484.90
2023-02-18T06:57:05.161Z,99485.98
2023-02-18T06:59:39.010Z,99483.14
2023-02-18T07:02:14.660Z,99488.98
2023-02-18T07:04:48.339Z,99491.53
2023-02-18T07:07:21.944Z,99496.37
2023-02-18T07:09:58.595Z,99497.48
2023-02-18T07:12:32.362Z,99503.17
2023-02-18T07:15:06.187Z,99510.72
2023-02-18T07:17:40.491Z,99507.73
2023-02-18T07:20:14.772Z,99496.56
2023-02-18T07:22:48.248Z,99498.00
2023-02-18T07:25:23.292Z,99499.33
2023-02-18T07:27:57.228Z,99499.08
2023-02-18T07:30:30.704Z,99507.20
2023-02-18T07:33:04.322Z,99504.75
2023-02-18T07:35:37.960Z,99502.48
2023-02-18T07:38:12.308Z,99499.59
2023-02-18T07:40:48.815Z,99494.42
2023-02-18T07:43:23.029Z,99499.11
2023-02-18T07:45:56.366Z,99500.95
2023-02-18T07:48:30.053Z,99498.98
2023-02-18T07:51:06.956Z,99502.48
2023-02-18T07:53:41.097Z,99505.39
2023-02-18T07:56:14.982Z,99503.98
2023-02-18T07:58:48.579Z,99504.60
2023-02-18T08:01:21.911Z,99500.63
2023-02-18T08:03:55.698Z,99498.42
2023-02-18T08:06:33.021Z,99502.55
2023-02-18T08:09:07.379Z,99506.55
2023-02-18T08:11:40.902Z,99507.64
2023-02-18T08:14:14.449Z,99509.98
2023-02-18T08:16:48.008Z,99505.83
2023-02-18T08:19:32.450Z,99505.48
2023-02-18T08:22:06.611Z,99504.34
2023-02-18T08:24:39.896Z,99504.86
2023-02-18T08:27:16.438Z,99503.07
2023-02-18T08:29:50.117Z,99504.80
2023-02-18T08:32:23.633Z,99507.66
2023-02-18T08:34:57.574Z,99507.25
2023-02-18T08:37:53.758Z,99510.52
2023-02-18T08:40:28.484Z,99510.40
2023-02-18T08:43:02.051Z,99503.94
2023-02-18T08:45:36.201Z,99503.45
2023-02-18T08:48:20.752Z,99506.65
2023-02-18T08:50:54.458Z,99513.39
2023-02-18T08:53:27.919Z,99513.75
2023-02-18T08:56:21.701Z,99525.02
2023-02-18T08:58:55.158Z,99527.54
2023-02-18T09:01:28.631Z,99530.75
2023-02-18T09:04:02.963Z,99527.68
2023-02-18T09:06:56.777Z,99528.61
2023-02-18T09:09:30.181Z,99527.86
2023-02-18T09:12:16.790Z,99540.94
2023-02-18T09:14:52.330Z,99546.14
2023-02-18T09:17:46.198Z,99542.69
2023-02-18T09:20:23.114Z,99554.80
2023-02-18T09:23:01.111Z,99553.06
2023-02-18T09:25:37.315Z,99554.69
2023-02-18T09:28:10.814Z,99554.45
2023-02-18T09:30:51.965Z,99558.42
2023-02-18T09:33:26.228Z,99559.91
2023-02-18T09:36:20.842Z,99559.62
2023-02-18T09:39:14.608Z,99557.61
2023-02-18T09:41:51.932Z,99565.89
2023-02-18T09:44:31.432Z,99567.53
2023-02-18T09:47:08.417Z,99567.88
2023-02-18T09:49:54.263Z,99570.34
2023-02-18T09:52:30.331Z,99566.05
2023-02-18T09:55:04.636Z,99573.98
2023-02-18T09:57:43.067Z,99576.87
2023-02-18T10:00:24.713Z,99578.65
2023-02-18T10:03:04.657Z,99591.52
2023-02-18T10:05:39.165Z,99594.27
2023-02-18T10:08:35.756Z,99591.89
2023-02-18T10:11:17.194Z,99596.52
2023-02-18T10:13:51.673Z,99597.55
2023-02-18T10:16:26.960Z,99598.58
2023-02-18T10:19:05.953Z,99600.00
2023-02-18T10:21:40.200Z,99594.87
2023-02-18T10:24:23.655Z,99594.81
2023-02-18T10:26:57.611Z,99591.80
2023-02-18T10:29:32.682Z,99592.86
2023-02-18T10:34:01.448Z,99591.48
2023-02-18T10:36:37.512Z,99592.86
2023-02-18T11:27:01.549Z,99555.41
2023-02-18T11:29:36.417Z,99551.73
2023-02-18T11:32:14.856Z,99547.65
2023-02-18T11:34:48.777Z,99548.89
2023-02-18T11:37:26.089Z,99545.66
2023-02-18T11:40:00.534Z,99547.30
2023-02-18T11:42:34.257Z,99542.08
2023-02-18T11:45:08.704Z,99539.80
2023-02-18T11:47:42.292Z,99539.33
2023-02-18T11:50:26.821Z,99536.71
2023-02-18T11:53:00.626Z,99531.44
2023-02-18T11:55:34.448Z,99535.41
2023-02-18T11:58:12.661Z,99534.88
2023-02-18T12:00:48.675Z,99530.61
2023-02-18T12:03:36.582Z,99525.69
2023-02-18T12:06:20.832Z,99524.33
2023-02-18T12:08:59.833Z,99523.91
2023-02-18T12:11:38.016Z,99517.98
2023-02-18T12:14:19.483Z,99514.66
2023-02-18T12:17:11.901Z,99513.13
2023-02-18T12:20:02.545Z,99514.83
2023-02-18T12:22:45.783Z,99509.96
2023-02-18T12:25:35.716Z,99505.17
2023-02-18T12:28:25.508Z,99504.84
2023-02-18T12:31:23.379Z,99500.97
2023-02-18T12:34:41.317Z,99504.50
2023-02-18T12:37:39.936Z,99492.55
2023-02-18T12:40:24.015Z,99480.77
2023-02-18T12:43:07.289Z,99481.48
2023-02-18T12:46:01.865Z,99485.94
2023-02-18T12:48:52.830Z,99481.52
2023-02-18T12:51:41.494Z,99468.24
2023-02-18T12:54:25.097Z,99468.56
2023-02-18T12:57:30.855Z,99466.10
2023-02-18T13:00:40.084Z,99470.33
2023-02-18T13:03:32.955Z,99464.37
2023-02-18T13:06:20.514Z,99456.80
2023-02-18T13:09:03.883Z,99449.50
2023-02-18T13:11:49.574Z,99448.02
2023-02-18T13:14:28.038Z,99447.85
2023-02-18T13:17:01.637Z,99443.10
2023-02-18T13:19:43.919Z,99439.74
2023-02-18T13:22:21.006Z,99446.41
2023-02-18T13:25:00.678Z,99451.08
2023-02-18T13:27:41.039Z,99446.45
2023-02-18T13:30:25.464Z,99448.79
2023-02-18T13:33:10.384Z,99452.03
2023-02-18T13:35:49.834Z,99458.39
2023-02-18T13:38:56.993Z,99461.09
2023-02-18T13:41:36.918Z,99458.29
2023-02-18T13:44:52.068Z,99463.89
2023-02-18T13:47:40.598Z,99466.38
2023-02-18T13:50:46.444Z,99461.78
2023-02-18T13:53:32.201Z,99462.45
2023-02-18T13:56:10.237Z,99458.66
2023-02-18T13:58:53.710Z,99453.33
2023-02-18T14:01:42.250Z,99455.34
2023-02-18T14:04:31.857Z,99454.61
2023-02-18T14:07:36.231Z,99455.13
2023-02-18T14:10:27.085Z,99452.16
2023-02-18T14:13:41.675Z,99449.27
2023-02-18T14:16:16.363Z,99449.58
2023-02-18T14:19:04.476Z,99444.94
2023-02-18T14:21:43.384Z,99443.45
2023-02-18T14:24:38.974Z,99445.06
2023-02-18T14:27:20.908Z,99445.39
2023-02-18T14:29:55.621Z,99445.25
2023-02-18T14:32:31.465Z,99438.02
2023-02-18T14:35:23.020Z,99426.80
2023-02-18T14:38:19.723Z,99427.84
2023-02-18T14:41:17.180Z,99420.37
2023-02-18T14:44:18.816Z,99416.84
2023-02-18T14:47:17.576Z,99414.89
2023-02-18T14:49:54.151Z,99409.85
2023-02-18T14:52:36.428Z,99410.06
2023-02-18T14:55:18.898Z,99412.67
2023-02-18T14:57:57.530Z,99417.45
2023-02-18T15:00:36.144Z,99424.52
2023-02-18T15:03:18.138Z,99422.43
2023-02-18T15:05:53.147Z,99422.47
2023-02-18T15:08:27.987Z,99427.60
2023-02-18T15:11:05.638Z,99438.23
2023-02-18T15:13:44.872Z,99442.84
2023-02-18T15:16:29.065Z,99449.94
2023-02-18T15:19:08.108Z,99450.63
2023-02-18T15:21:44.949Z,99447.33
2023-02-18T15:24:29.301Z,99452.17
2023-02-18T15:27:08.052Z,99454.45
2023-02-18T15:29:43.546Z,99463.86
2023-02-18T15:32:22.366Z,99458.15
2023-02-18T15:34:59.017Z,99452.08
2023-02-18T15:37:34.272Z,99449.02
2023-02-18T15:40:18.006Z,99438.72
2023-02-18T15:42:56.047Z,99433.59
2023-02-18T15:45:36.594Z,99435.98
2023-02-18T15:48:33.274Z,99433.35
2023-02-18T15:51:17.760Z,99434.14
2023-02-18T15:53:57.069Z,99432.91
2023-02-18T15:56:36.263Z,99428.61
2023-02-18T15:59:24.012Z,99430.90
2023-02-18T16:02:05.546Z,99427.56
2023-02-18T16:04:43.632Z,99429.23
2023-02-18T16:07:27.931Z,99423.61
2023-02-18T16:10:22.465Z,99417.50
2023-02-18T16:13:02.384Z,99419.42
2023-02-18T16:15:44.466Z,99421.23
2023-02-18T16:18:37.254Z,99424.53
2023-02-18T16:21:31.733Z,99424.59
2023-02-18T16:24:28.328Z,99427.83
2023-02-18T16:27:04.308Z,99425.67
2023-02-18T16:29:42.897Z,99424.64
2023-02-18T16:32:17.087Z,99424.66
2023-02-18T16:34:55.582Z,99421.67
2023-02-18T16:37:41.713Z,99418.88
2023-02-18T16:40:29.336Z,99422.27
2023-02-18T16:43:08.661Z,99425.28
2023-02-18T16:45:48.411Z,99424.98
2023-02-18T16:48:30.036Z,99422.55
2023-02-18T16:51:07.552Z,99424.02
2023-02-18T16:53:45.254Z,99423.42
2023-02-18T16:56:24.837Z,99422.20
2023-02-18T16:59:06.069Z,99416.83
2023-02-18T17:01:45.130Z,99414.90
2023-02-18T17:04:21.736Z,99418.63
2023-02-18T17:06:58.116Z,99417.98
2023-02-18T17:09:33.090Z,99422.83
2023-02-18T17:12:09.510Z,99421.20
2023-02-18T17:14:44.135Z,99419.34
2023-02-18T17:17:22.550Z,99414.33
2023-02-18T17:19:57.669Z,99408.14
2023-02-18T17:22:34.093Z,99414.56
2023-02-18T17:25:17.481Z,99420.86
2023-02-18T17:27:53.018Z,99414.86
2023-02-18T17:30:31.125Z,99416.64
2023-02-18T17:33:06.403Z,99415.70
2023-02-18T17:35:42.249Z,99421.08
2023-02-18T17:38:27.315Z,99421.55
2023-02-18T17:41:02.559Z,99428.02
2023-02-18T17:43:39.032Z,99429.93
2023-02-18T17:46:19.127Z,99429.48
2023-02-18T17:48:55.296Z,99428.02
2023-02-18T17:51:40.582Z,99419.51
2023-02-18T17:54:18.978Z,99417.34
2023-02-18T17:56:56.592Z,99416.79
2023-02-18T17:59:32.474Z,99414.28
2023-02-18T18:02:17.610Z,99410.20
2023-02-18T18:04:53.908Z,99411.02
2023-02-18T18:07:29.757Z,99405.51
2023-02-18T18:10:05.882Z,99397.39
2023-02-18T18:12:43.469Z,99395.63
2023-02-18T18:15:31.337Z,99398.46
2023-02-18T18:18:10.072Z,99395.86
2023-02-18T18:20:50.191Z,99402.13
2023-02-18T18:23:27.527Z,99395.70
2023-02-18T18:26:04.506Z,99386.59
2023-02-18T18:28:40.366Z,99383.98
2023-02-18T18:31:19.383Z,99388.34
2023-02-18T18:33:59.211Z,99397.02
2023-02-18T18:36:35.600Z,99397.43
2023-02-18T18:39:14.235Z,99398.52
2023-02-18T18:41:52.864Z,99395.98
2023-02-18T18:44:26.336Z,99406.86
2023-02-18T18:47:02.641Z,99407.38
2023-02-18T18:49:41.034Z,99404.60
2023-02-18T18:52:21.348Z,99396.30
2023-02-18T18:54:57.003Z,99397.84
2023-02-18T18:57:34.117Z,99399.73
2023-02-18T19:00:15.756Z,99408.32
2023-02-18T19:02:51.767Z,99415.35
2023-02-18T19:05:32.883Z,99418.27
2023-02-18T19:08:13.863Z,99416.45
2023-02-18T19:10:52.746Z,99417.32
2023-02-18T19:13:31.411Z,99434.88
2023-02-18T19:16:12.369Z,99440.84
2023-02-18T19:18:48.644Z,99446.89
2023-02-18T19:21:25.703Z,99445.97
2023-02-18T19:24:01.494Z,99445.08
2023-02-18T19:26:39.593Z,99446.35
2023-02-18T19:29:24.515Z,99451.45
2023-02-18T19:32:01.848Z,99450.89
2023-02-18T19:34:38.808Z,99452.48
2023-02-18T19:37:15.378Z,99457.38
2023-02-18T19:39:51.989Z,99457.73
2023-02-18T19:42:33.760Z,99459.89
2023-02-18T19:45:15.666Z,99464.48
2023-02-18T19:47:58.348Z,99464.91
2023-02-18T19:50:35.717Z,99471.81
2023-02-18T19:53:17.904Z,99480.02
2023-02-18T19:56:07.682Z,99475.19
2023-02-18T19:58:47.762Z,99474.84
2023-02-18T20:01:22.759Z,99479.27
2023-02-18T20:03:59.122Z,99483.08
2023-02-18T20:06:41.959Z,99493.48
2023-02-18T20:09:17.790Z,99505.70
2023-02-18T20:11:53.759Z,99508.94
2023-02-18T20:14:30.369Z,99509.97
2023-02-18T20:17:14.328Z,99513.06
2023-02-18T20:19:55.758Z,99513.33
2023-02-18T20:22:32.359Z,99515.90
2023-02-18T20:25:10.823Z,99519.41
2023-02-18T20:28:00.315Z,99520.03
2023-02-18T20:30:42.531Z,99523.52
2023-02-18T20:33:23.394Z,99537.08
2023-02-18T20:36:05.359Z,99541.50
2023-02-18T20:38:42.234Z,99547.36
2023-02-18T20:41:23.268Z,99549.50
2023-02-18T20:44:03.521Z,99550.04
2023-02-18T20:46:42.371Z,99547.55
2023-02-18T20:49:20.958Z,99545.91
2023-02-18T20:52:08.563Z,99549.08
2023-02-18T20:54:49.086Z,99558.98
2023-02-18T20:57:25.312Z,99559.30
2023-02-18T21:00:01.117Z,99560.71
2023-02-18T21:02:36.571Z,99571.80
2023-02-18T21:05:13.867Z,99573.98
2023-02-18T21:07:51.485Z,99573.52
2023-02-18T21:10:30.504Z,99579.20
2023-02-18T21:13:05.580Z,99579.33
2023-02-18T21:15:42.370Z,99578.16
2023-02-18T21:18:20.430Z,99585.33
2023-02-18T21:20:57.115Z,99584.60
2023-02-18T21:23:36.273Z,99586.73
2023-02-18T21:26:19.072Z,99592.10
2023-02-18T21:29:00.199Z,99594.81
2023-02-18T21:31:42.359Z,99601.92
2023-02-18T21:34:18.502Z,99603.77
2023-02-18T21:36:53.209Z,99607.68
2023-02-18T21:39:31.351Z,99615.61
2023-02-18T21:42:07.412Z,99614.88
2023-02-18T21:44:43.264Z,99622.86
2023-02-18T21:47:21.001Z,99633.01
2023-02-18T21:49:55.410Z,99638.14
2023-02-18T21:52:32.710Z,99641.75
2023-02-18T21:55:09.635Z,99639.50
2023-02-18T21:57:43.780Z,99644.73
2023-02-18T22:00:21.073Z,99652.38
2023-02-18T22:02:56.189Z,99661.50
2023-02-18T22:05:31.286Z,99667.34
2023-02-18T22:08:06.908Z,99679.39
2023-02-18T22:10:42.010Z,99685.73
2023-02-18T22:13:16.308Z,99686.42
2023-02-18T22:15:58.853Z,99684.23
2023-02-18T22:18:34.556Z,99677.88
2023-02-18T22:21:11.018Z,99683.67
2023-02-18T22:23:45.063Z,99695.10
2023-02-18T22:26:18.958Z,99691.38
2023-02-18T22:28:56.820Z,99698.33
2023-02-18T22:31:32.575Z,99699.10
2023-02-18T22:34:06.929Z,99704.98
2023-02-18T22:36:41.050Z,99708.65
2023-02-18T22:39:16.156Z,99709.11
2023-02-18T22:41:49.664Z,99715.43
2023-02-18T22:44:23.377Z,99719.15
2023-02-18T22:46:58.457Z,99726.12
2023-02-18T22:49:32.212Z,99728.43
2023-02-18T22:52:06.219Z,99721.03
2023-02-18T22:54:39.874Z,99719.63
2023-02-18T22:57:13.439Z,99719.94
2023-02-18T22:59:47.099Z,99729.10
2023-02-18T23:02:21.630Z,99726.65
2023-02-18T23:04:55.468Z,99729.77
2023-02-18T23:07:29.692Z,99732.25
2023-02-18T23:10:03.349Z,99738.94
2023-02-18T23:12:37.057Z,99743.52
2023-02-18T23:15:14.071Z,99742.23
2023-02-18T23:17:49.918Z,99748.11
2023-02-18T23:20:37.572Z,99754.00
2023-02-18T23:23:11.388Z,99749.94
2023-02-18T23:25:44.725Z,99752.30
2023-02-18T23:28:18.258Z,99755.48
2023-02-18T23:30:51.954Z,99752.08
2023-02-18T23:33:25.590Z,99754.06
2023-02-18T23:35:59.118Z,99758.44
2023-02-18T23:38:32.839Z,99767.41
2023-02-18T23:41:06.805Z,99775.63
2023-02-18T23:43:40.584Z,99770.95
2023-02-18T23:46:14.880Z,99780.16
2023-02-18T23:48:49.137Z,99780.75
2023-02-18T23:51:24.994Z,99780.64
2023-02-18T23:53:58.395Z,99780.90
2023-02-18T23:56:33.351Z,99779.29
2023-02-18T23:59:07.541Z,99780.83
